createdAt,value
2022-08-16T00:00:06.736Z,13.75
2022-08-16T00:04:05.290Z,9.75
2022-08-16T00:07:47.542Z,10.73
2022-08-16T00:11:30.183Z,14.07
2022-08-16T00:15:17.724Z,15.80
2022-08-16T00:19:00.721Z,13.23
2022-08-16T00:22:44.565Z,13.90
2022-08-16T00:26:35.154Z,10.83
2022-08-16T00:30:28.785Z,12.80
2022-08-16T00:34:18.206Z,12.18
2022-08-16T00:38:03.182Z,16.55
2022-08-16T00:42:05.192Z,14.10
2022-08-16T00:46:33.422Z,14.35
2022-08-16T00:50:14.347Z,15.18
2022-08-16T00:53:59.915Z,14.27
2022-08-16T00:57:58.866Z,15.55
2022-08-16T01:01:44.814Z,14.38
2022-08-16T01:05:28.260Z,15.30
2022-08-16T01:09:10.827Z,13.82
2022-08-16T01:12:53.116Z,17.73
2022-08-16T01:16:36.420Z,14.38
2022-08-16T01:20:24.311Z,15.10
2022-08-16T01:24:53.277Z,18.02
2022-08-16T01:28:30.781Z,15.23
2022-08-16T01:32:13.837Z,14.80
2022-08-16T01:36:14.065Z,13.73
2022-08-16T01:39:56.734Z,14.73
2022-08-16T01:43:41.576Z,12.27
2022-08-16T01:47:23.512Z,13.48
2022-08-16T01:51:09.668Z,16.80
2022-08-16T01:54:59.394Z,12.65
2022-08-16T01:58:41.586Z,14.32
2022-08-16T02:02:30.259Z,19.42
2022-08-16T02:06:12.406Z,13.55
2022-08-16T02:09:57.256Z,16.93
2022-08-16T02:13:42.114Z,17.33
2022-08-16T02:17:24.293Z,15.95
2022-08-16T02:21:12.230Z,16.23
2022-08-16T02:24:57.463Z,16.98
2022-08-16T02:28:39.435Z,16.55
2022-08-16T02:32:50.478Z,14.15
2022-08-16T02:36:47.387Z,19.45
2022-08-16T02:40:32.453Z,16.13
2022-08-16T02:44:14.917Z,18.02
2022-08-16T02:48:01.430Z,21.50
2022-08-16T02:52:00.807Z,20.45
2022-08-16T02:55:43.128Z,17.60
2022-08-16T02:59:27.724Z,18.90
2022-08-16T03:03:22.307Z,14.80
2022-08-16T03:07:06.470Z,16.77
2022-08-16T03:10:49.737Z,17.00
2022-08-16T03:14:32.903Z,19.77
2022-08-16T03:18:18.670Z,16.20
2022-08-16T03:22:19.431Z,16.23
2022-08-16T03:26:11.391Z,18.43
2022-08-16T03:29:54.339Z,19.60
2022-08-16T03:33:36.728Z,19.42
2022-08-16T03:37:18.988Z,18.50
2022-08-16T03:41:03.031Z,21.65
2022-08-16T03:44:49.463Z,21.30
2022-08-16T03:48:39.574Z,17.73
2022-08-16T03:52:23.930Z,21.92
2022-08-16T03:56:20.007Z,22.08
2022-08-16T04:00:35.540Z,18.98
2022-08-16T04:04:17.634Z,21.40
2022-08-16T04:08:23.001Z,19.30
2022-08-16T04:12:10.791Z,23.42
2022-08-16T04:15:53.727Z,22.17
2022-08-16T04:19:35.879Z,20.73
2022-08-16T04:23:18.031Z,21.98
2022-08-16T04:27:00.560Z,18.52
2022-08-16T04:30:42.570Z,17.25
2022-08-16T04:34:32.351Z,18.25
2022-08-16T04:38:21.202Z,17.15
2022-08-16T04:42:11.153Z,20.23
2022-08-16T04:46:00.286Z,20.40
2022-08-16T04:49:46.180Z,19.10
2022-08-16T04:53:28.825Z,15.90
2022-08-16T04:57:10.787Z,18.40
2022-08-16T05:00:54.836Z,18.00
2022-08-16T05:04:37.442Z,22.35
2022-08-16T05:08:28.985Z,18.67
2022-08-16T05:12:18.059Z,18.83
2022-08-16T05:16:04.841Z,20.67
2022-08-16T05:19:57.466Z,14.60
2022-08-16T05:23:40.559Z,19.48
2022-08-16T05:27:22.692Z,16.23
2022-08-16T05:31:04.800Z,20.70
2022-08-16T05:34:49.082Z,20.98
2022-08-16T05:38:38.956Z,20.95
2022-08-16T05:42:21.464Z,21.67
2022-08-16T05:46:31.023Z,19.40
2022-08-16T05:50:19.166Z,23.27
2022-08-16T05:54:01.724Z,40.42
2022-08-16T05:57:46.359Z,18.57
2022-08-16T06:01:38.932Z,14.05
2022-08-16T06:05:21.377Z,18.52
2022-08-16T06:09:03.703Z,19.47
2022-08-16T06:12:45.879Z,16.60
2022-08-16T06:16:35.342Z,19.50
2022-08-16T06:20:23.776Z,20.27
2022-08-16T06:24:54.777Z,22.85
2022-08-16T06:28:16.808Z,23.92
2022-08-16T06:31:59.424Z,25.15
2022-08-16T06:35:41.814Z,25.63
2022-08-16T06:39:24.031Z,30.95
2022-08-16T06:43:06.007Z,25.52
2022-08-16T06:46:51.060Z,26.43
2022-08-16T06:50:34.301Z,28.17
2022-08-16T06:54:18.366Z,27.30
2022-08-16T06:58:00.827Z,33.17
2022-08-16T07:05:43.122Z,30.55
2022-08-16T07:21:45.942Z,24.15
2022-08-16T07:25:34.692Z,25.27
2022-08-16T07:29:22.531Z,28.67
2022-08-16T07:33:54.787Z,27.17
2022-08-16T07:37:58.153Z,38.90
2022-08-16T07:41:47.700Z,26.73
2022-08-16T07:45:53.037Z,31.38
2022-08-16T07:49:52.947Z,30.02
2022-08-16T07:53:47.681Z,28.00
2022-08-16T07:58:00.738Z,26.38
2022-08-16T08:02:03.757Z,24.75
2022-08-16T08:06:33.341Z,25.50
2022-08-16T08:11:09.075Z,28.33
2022-08-16T08:19:13.257Z,25.20
2022-08-16T08:23:02.894Z,25.70
2022-08-16T08:26:50.329Z,21.42
2022-08-16T08:34:46.458Z,22.00
2022-08-16T08:38:52.463Z,19.00
2022-08-16T08:42:35.087Z,22.45
2022-08-16T08:46:44.613Z,22.40
2022-08-16T08:50:50.049Z,23.20
2022-08-16T08:54:59.175Z,23.88
2022-08-16T09:02:56.600Z,19.05
2022-08-16T09:10:47.282Z,18.45
2022-08-16T09:15:16.201Z,17.57
2022-08-16T09:19:32.020Z,18.90
2022-08-16T09:32:08.855Z,18.00
2022-08-16T09:45:11.951Z,17.03
2022-08-16T09:48:51.663Z,17.90
2022-08-16T09:53:15.287Z,18.10
2022-08-16T10:05:39.273Z,18.67
2022-08-16T11:07:53.209Z,30.77
2022-08-16T11:12:13.559Z,28.87
2022-08-16T11:33:55.634Z,26.90
2022-08-16T11:42:49.681Z,23.85
2022-08-16T11:47:19.212Z,25.23
2022-08-16T12:05:20.001Z,15.70
2022-08-16T12:09:51.070Z,11.33
2022-08-16T12:14:39.892Z,11.85
2022-08-16T12:18:52.559Z,13.80
2022-08-16T12:31:33.488Z,11.10
2022-08-16T13:25:20.873Z,9.10
2022-08-16T13:30:21.629Z,8.48
2022-08-16T14:49:30.070Z,18.63
2022-08-16T17:58:10.554Z,18.30
2022-08-16T18:07:13.185Z,22.70
2022-08-16T18:11:32.847Z,20.27
2022-08-16T18:29:41.148Z,16.73
2022-08-16T18:38:38.246Z,12.07
2022-08-16T19:14:49.664Z,14.57
2022-08-16T19:18:56.988Z,16.13
2022-08-16T19:26:57.177Z,17.77
2022-08-16T19:30:39.914Z,17.57
2022-08-16T19:34:22.693Z,19.48
2022-08-16T19:38:05.117Z,18.52
2022-08-16T19:41:53.766Z,16.73
2022-08-16T19:45:36.328Z,16.92
2022-08-16T19:49:18.381Z,19.15
2022-08-16T19:53:13.102Z,18.73
2022-08-16T19:57:01.393Z,19.00
2022-08-16T20:00:45.703Z,18.20
2022-08-16T20:04:28.426Z,18.23
2022-08-16T20:08:11.633Z,20.63
2022-08-16T20:11:54.576Z,20.10
2022-08-16T20:15:40.861Z,18.42
2022-08-16T20:19:25.090Z,17.58
2022-08-16T20:23:24.060Z,20.15
2022-08-16T20:27:11.106Z,19.10
2022-08-16T20:30:53.076Z,20.25
2022-08-16T20:34:36.036Z,21.03
2022-08-16T20:38:19.518Z,20.70
2022-08-16T20:42:01.466Z,17.63
2022-08-16T20:45:46.196Z,18.77
2022-08-16T20:49:28.505Z,19.80
2022-08-16T20:53:10.954Z,19.20
2022-08-16T20:56:52.976Z,21.88
2022-08-16T21:00:34.950Z,20.55
2022-08-16T21:04:21.461Z,20.75
2022-08-16T21:08:27.946Z,21.60
2022-08-16T21:12:11.396Z,23.17
2022-08-16T21:15:55.641Z,23.98
2022-08-16T21:19:38.153Z,26.00
2022-08-16T21:23:23.132Z,24.83
2022-08-16T21:27:05.365Z,25.95
2022-08-16T21:30:49.541Z,22.80
2022-08-16T21:34:31.532Z,22.88
2022-08-16T21:38:28.797Z,22.35
2022-08-16T21:42:16.058Z,20.75
2022-08-16T21:45:58.556Z,22.80
2022-08-16T21:49:43.300Z,22.37
2022-08-16T21:53:30.603Z,23.20
2022-08-16T21:57:12.703Z,23.95
2022-08-16T22:00:54.837Z,23.53
2022-08-16T22:04:38.993Z,24.08
2022-08-16T22:08:21.549Z,21.70
2022-08-16T22:17:09.565Z,21.73
2022-08-16T22:20:51.675Z,18.58
2022-08-16T22:24:34.078Z,21.58
2022-08-16T22:28:17.263Z,21.70
2022-08-16T22:32:01.176Z,23.50
2022-08-16T22:35:49.953Z,21.45
2022-08-16T22:39:32.232Z,25.53
2022-08-16T22:43:16.157Z,21.60
2022-08-16T22:46:58.537Z,24.70
2022-08-16T22:50:40.530Z,25.52
2022-08-16T22:54:39.328Z,25.13
2022-08-16T22:58:36.244Z,24.65
2022-08-16T23:02:18.701Z,26.27
2022-08-16T23:06:01.088Z,26.57
2022-08-16T23:09:43.007Z,27.70
2022-08-16T23:13:28.026Z,27.63
2022-08-16T23:17:12.089Z,28.37
2022-08-16T23:20:55.925Z,31.98
2022-08-16T23:24:46.657Z,29.40
2022-08-16T23:28:39.401Z,26.80
2022-08-16T23:32:21.270Z,31.10
2022-08-16T23:36:04.266Z,28.95
2022-08-16T23:39:46.247Z,29.95
2022-08-16T23:51:12.796Z,26.20
2022-08-16T23:54:54.664Z,30.27
2022-08-16T23:58:40.963Z,31.10
